sensor_id;sensor_type;location;lat;lon;timestamp;temperature;humidity
39325;DHT22;25037;49.488;9.900;2022-11-06T00:00:16;6.30;78.10
39325;DHT22;25037;49.488;9.900;2022-11-06T00:02:43;6.30;78.10
39325;DHT22;25037;49.488;9.900;2022-11-06T00:05:09;6.20;78.10
39325;DHT22;25037;49.488;9.900;2022-11-06T00:07:53;6.20;78.00
39325;DHT22;25037;49.488;9.900;2022-11-06T00:10:19;6.20;78.00
39325;DHT22;25037;49.488;9.900;2022-11-06T00:12:45;6.10;77.90
39325;DHT22;25037;49.488;9.900;2022-11-06T00:15:11;6.10;77.90
39325;DHT22;25037;49.488;9.900;2022-11-06T00:17:37;6.00;78.00
39325;DHT22;25037;49.488;9.900;2022-11-06T00:20:03;6.00;78.00
39325;DHT22;25037;49.488;9.900;2022-11-06T00:22:36;6.00;78.00
39325;DHT22;25037;49.488;9.900;2022-11-06T00:25:03;6.00;78.10
39325;DHT22;25037;49.488;9.900;2022-11-06T00:27:29;6.00;78.00
39325;DHT22;25037;49.488;9.900;2022-11-06T00:29:54;5.90;78.00
39325;DHT22;25037;49.488;9.900;2022-11-06T00:32:20;5.90;78.00
39325;DHT22;25037;49.488;9.900;2022-11-06T00:34:46;5.90;77.90
39325;DHT22;25037;49.488;9.900;2022-11-06T00:37:12;5.90;78.00
39325;DHT22;25037;49.488;9.900;2022-11-06T00:39:37;5.90;78.00
39325;DHT22;25037;49.488;9.900;2022-11-06T00:42:03;5.90;78.00
39325;DHT22;25037;49.488;9.900;2022-11-06T00:44:29;5.90;78.10
39325;DHT22;25037;49.488;9.900;2022-11-06T00:46:54;5.90;78.10
39325;DHT22;25037;49.488;9.900;2022-11-06T00:49:20;5.90;78.10
39325;DHT22;25037;49.488;9.900;2022-11-06T00:51:45;5.90;78.20
39325;DHT22;25037;49.488;9.900;2022-11-06T00:54:12;6.00;78.10
39325;DHT22;25037;49.488;9.900;2022-11-06T00:56:38;6.00;78.10
39325;DHT22;25037;49.488;9.900;2022-11-06T00:59:05;6.00;78.10
39325;DHT22;25037;49.488;9.900;2022-11-06T01:01:34;6.00;78.10
39325;DHT22;25037;49.488;9.900;2022-11-06T01:04:03;6.00;78.00
39325;DHT22;25037;49.488;9.900;2022-11-06T01:06:32;6.00;78.00
39325;DHT22;25037;49.488;9.900;2022-11-06T01:08:58;6.00;78.00
39325;DHT22;25037;49.488;9.900;2022-11-06T01:11:28;6.00;78.00
39325;DHT22;25037;49.488;9.900;2022-11-06T01:13:57;6.00;78.00
39325;DHT22;25037;49.488;9.900;2022-11-06T01:16:24;6.00;78.00
39325;DHT22;25037;49.488;9.900;2022-11-06T01:18:50;6.00;78.00
39325;DHT22;25037;49.488;9.900;2022-11-06T01:21:24;6.00;78.00
39325;DHT22;25037;49.488;9.900;2022-11-06T01:23:54;6.00;77.90
39325;DHT22;25037;49.488;9.900;2022-11-06T01:26:20;6.00;77.80
39325;DHT22;25037;49.488;9.900;2022-11-06T01:28:46;5.90;77.80
39325;DHT22;25037;49.488;9.900;2022-11-06T01:31:15;5.90;77.80
39325;DHT22;25037;49.488;9.900;2022-11-06T01:33:41;5.80;77.80
39325;DHT22;25037;49.488;9.900;2022-11-06T01:36:11;5.80;77.80
39325;DHT22;25037;49.488;9.900;2022-11-06T01:38:41;5.80;77.80
39325;DHT22;25037;49.488;9.900;2022-11-06T01:41:07;5.80;77.80
39325;DHT22;25037;49.488;9.900;2022-11-06T01:43:58;5.80;77.80
39325;DHT22;25037;49.488;9.900;2022-11-06T01:46:29;5.70;77.80
39325;DHT22;25037;49.488;9.900;2022-11-06T01:51:28;5.60;78.00
39325;DHT22;25037;49.488;9.900;2022-11-06T01:53:55;5.60;77.90
39325;DHT22;25037;49.488;9.900;2022-11-06T01:56:21;5.60;78.00
39325;DHT22;25037;49.488;9.900;2022-11-06T01:58:50;5.60;78.00
39325;DHT22;25037;49.488;9.900;2022-11-06T02:01:16;5.50;77.90
39325;DHT22;25037;49.488;9.900;2022-11-06T02:06:27;5.50;77.90
39325;DHT22;25037;49.488;9.900;2022-11-06T02:08:54;5.40;78.00
39325;DHT22;25037;49.488;9.900;2022-11-06T02:11:19;5.40;78.00
39325;DHT22;25037;49.488;9.900;2022-11-06T02:14:07;5.40;78.00
39325;DHT22;25037;49.488;9.900;2022-11-06T02:27:31;5.30;77.90
39325;DHT22;25037;49.488;9.900;2022-11-06T02:30:12;5.20;77.90
39325;DHT22;25037;49.488;9.900;2022-11-06T02:32:59;5.20;77.90
39325;DHT22;25037;49.488;9.900;2022-11-06T02:35:35;5.20;77.80
39325;DHT22;25037;49.488;9.900;2022-11-06T02:38:06;5.10;77.80
39325;DHT22;25037;49.488;9.900;2022-11-06T02:40:35;5.10;77.80
39325;DHT22;25037;49.488;9.900;2022-11-06T02:43:05;5.10;77.80
39325;DHT22;25037;49.488;9.900;2022-11-06T02:45:36;5.10;77.80
39325;DHT22;25037;49.488;9.900;2022-11-06T02:48:04;5.00;77.70
39325;DHT22;25037;49.488;9.900;2022-11-06T02:50:38;5.00;77.80
39325;DHT22;25037;49.488;9.900;2022-11-06T02:53:06;4.90;77.90
39325;DHT22;25037;49.488;9.900;2022-11-06T02:55:36;4.90;77.90
39325;DHT22;25037;49.488;9.900;2022-11-06T02:58:08;4.90;77.80
39325;DHT22;25037;49.488;9.900;2022-11-06T03:00:35;4.90;77.80
39325;DHT22;25037;49.488;9.900;2022-11-06T03:03:06;4.80;77.80
39325;DHT22;25037;49.488;9.900;2022-11-06T03:05:45;4.80;77.80
39325;DHT22;25037;49.488;9.900;2022-11-06T03:08:27;4.70;77.80
39325;DHT22;25037;49.488;9.900;2022-11-06T03:11:21;4.60;77.80
39325;DHT22;25037;49.488;9.900;2022-11-06T03:22:34;4.50;78.00
39325;DHT22;25037;49.488;9.900;2022-11-06T03:25:29;4.50;77.90
39325;DHT22;25037;49.488;9.900;2022-11-06T03:28:06;4.40;77.90
39325;DHT22;25037;49.488;9.900;2022-11-06T03:30:36;4.40;78.00
39325;DHT22;25037;49.488;9.900;2022-11-06T03:33:17;4.40;78.00
39325;DHT22;25037;49.488;9.900;2022-11-06T03:35:47;4.40;78.00
39325;DHT22;25037;49.488;9.900;2022-11-06T03:38:19;4.30;77.90
39325;DHT22;25037;49.488;9.900;2022-11-06T03:40:51;4.30;77.80
39325;DHT22;25037;49.488;9.900;2022-11-06T03:43:21;4.20;77.80
39325;DHT22;25037;49.488;9.900;2022-11-06T03:45:50;4.10;77.80
39325;DHT22;25037;49.488;9.900;2022-11-06T03:48:53;4.00;77.90
39325;DHT22;25037;49.488;9.900;2022-11-06T03:51:21;4.00;77.90
39325;DHT22;25037;49.488;9.900;2022-11-06T03:53:52;3.90;78.00
39325;DHT22;25037;49.488;9.900;2022-11-06T03:56:35;3.90;77.90
39325;DHT22;25037;49.488;9.900;2022-11-06T03:59:05;3.80;78.10
39325;DHT22;25037;49.488;9.900;2022-11-06T04:01:41;3.80;78.20
39325;DHT22;25037;49.488;9.900;2022-11-06T04:04:15;3.90;78.30
39325;DHT22;25037;49.488;9.900;2022-11-06T04:06:51;3.90;78.30
39325;DHT22;25037;49.488;9.900;2022-11-06T04:09:19;3.90;78.20
39325;DHT22;25037;49.488;9.900;2022-11-06T04:12:05;3.90;78.20
39325;DHT22;25037;49.488;9.900;2022-11-06T04:14:52;3.90;78.20
39325;DHT22;25037;49.488;9.900;2022-11-06T04:17:19;3.90;78.10
39325;DHT22;25037;49.488;9.900;2022-11-06T04:19:53;3.90;78.10
39325;DHT22;25037;49.488;9.900;2022-11-06T04:22:47;3.90;78.20
39325;DHT22;25037;49.488;9.900;2022-11-06T04:25:55;3.90;78.10
39325;DHT22;25037;49.488;9.900;2022-11-06T04:28:50;3.90;78.00
39325;DHT22;25037;49.488;9.900;2022-11-06T04:31:29;3.90;78.00
39325;DHT22;25037;49.488;9.900;2022-11-06T04:34:01;3.80;78.00
39325;DHT22;25037;49.488;9.900;2022-11-06T04:36:46;3.90;78.00
39325;DHT22;25037;49.488;9.900;2022-11-06T04:39:28;3.90;78.00
39325;DHT22;25037;49.488;9.900;2022-11-06T04:42:15;3.90;77.90
39325;DHT22;25037;49.488;9.900;2022-11-06T04:44:49;3.80;77.90
39325;DHT22;25037;49.488;9.900;2022-11-06T04:47:18;3.80;77.80
39325;DHT22;25037;49.488;9.900;2022-11-06T04:49:45;3.70;77.80
39325;DHT22;25037;49.488;9.900;2022-11-06T04:52:17;3.70;77.80
39325;DHT22;25037;49.488;9.900;2022-11-06T04:54:45;3.70;77.90
39325;DHT22;25037;49.488;9.900;2022-11-06T04:57:11;3.70;77.90
39325;DHT22;25037;49.488;9.900;2022-11-06T04:59:37;3.60;77.90
39325;DHT22;25037;49.488;9.900;2022-11-06T05:02:03;3.70;77.90
39325;DHT22;25037;49.488;9.900;2022-11-06T05:04:29;3.60;77.90
39325;DHT22;25037;49.488;9.900;2022-11-06T05:06:55;3.70;77.90
39325;DHT22;25037;49.488;9.900;2022-11-06T05:09:21;3.70;77.90
39325;DHT22;25037;49.488;9.900;2022-11-06T05:11:46;3.60;77.90
39325;DHT22;25037;49.488;9.900;2022-11-06T05:14:12;3.60;77.80
39325;DHT22;25037;49.488;9.900;2022-11-06T05:16:37;3.60;77.90
39325;DHT22;25037;49.488;9.900;2022-11-06T05:19:03;3.60;78.00
39325;DHT22;25037;49.488;9.900;2022-11-06T05:21:29;3.60;77.90
39325;DHT22;25037;49.488;9.900;2022-11-06T05:24:13;3.50;77.80
39325;DHT22;25037;49.488;9.900;2022-11-06T05:26:39;3.50;77.80
39325;DHT22;25037;49.488;9.900;2022-11-06T05:29:04;3.40;77.90
39325;DHT22;25037;49.488;9.900;2022-11-06T05:31:30;3.40;77.90
39325;DHT22;25037;49.488;9.900;2022-11-06T05:33:55;3.40;77.90
39325;DHT22;25037;49.488;9.900;2022-11-06T05:36:21;3.40;77.80
39325;DHT22;25037;49.488;9.900;2022-11-06T05:38:46;3.40;77.90
39325;DHT22;25037;49.488;9.900;2022-11-06T05:41:12;3.40;78.00
39325;DHT22;25037;49.488;9.900;2022-11-06T05:43:37;3.30;78.00
39325;DHT22;25037;49.488;9.900;2022-11-06T05:46:03;3.40;78.00
39325;DHT22;25037;49.488;9.900;2022-11-06T05:48:29;3.30;78.00
39325;DHT22;25037;49.488;9.900;2022-11-06T05:51:05;3.30;78.00
39325;DHT22;25037;49.488;9.900;2022-11-06T05:53:32;3.30;78.10
39325;DHT22;25037;49.488;9.900;2022-11-06T05:55:58;3.30;78.10
39325;DHT22;25037;49.488;9.900;2022-11-06T05:58:25;3.30;78.10
39325;DHT22;25037;49.488;9.900;2022-11-06T06:00:50;3.40;78.10
39325;DHT22;25037;49.488;9.900;2022-11-06T06:03:16;3.40;78.10
39325;DHT22;25037;49.488;9.900;2022-11-06T06:05:42;3.50;78.10
39325;DHT22;25037;49.488;9.900;2022-11-06T06:08:07;3.50;78.10
39325;DHT22;25037;49.488;9.900;2022-11-06T06:10:33;3.60;78.10
39325;DHT22;25037;49.488;9.900;2022-11-06T06:12:58;3.60;78.00
39325;DHT22;25037;49.488;9.900;2022-11-06T06:15:24;3.70;78.00
39325;DHT22;25037;49.488;9.900;2022-11-06T06:17:49;3.70;78.10
39325;DHT22;25037;49.488;9.900;2022-11-06T06:20:15;3.70;78.00
39325;DHT22;25037;49.488;9.900;2022-11-06T06:22:41;3.80;78.00
39325;DHT22;25037;49.488;9.900;2022-11-06T06:25:06;3.80;77.90
39325;DHT22;25037;49.488;9.900;2022-11-06T06:27:32;3.90;77.90
39325;DHT22;25037;49.488;9.900;2022-11-06T06:29:58;3.90;77.90
39325;DHT22;25037;49.488;9.900;2022-11-06T06:32:24;3.90;77.80
39325;DHT22;25037;49.488;9.900;2022-11-06T06:34:49;3.90;77.80
39325;DHT22;25037;49.488;9.900;2022-11-06T06:37:15;3.90;77.70
39325;DHT22;25037;49.488;9.900;2022-11-06T06:39:40;3.90;77.70
39325;DHT22;25037;49.488;9.900;2022-11-06T06:42:06;3.90;77.70
39325;DHT22;25037;49.488;9.900;2022-11-06T06:44:31;3.90;77.80
39325;DHT22;25037;49.488;9.900;2022-11-06T06:46:57;3.90;77.80
39325;DHT22;25037;49.488;9.900;2022-11-06T06:49:22;3.90;77.80
39325;DHT22;25037;49.488;9.900;2022-11-06T06:51:49;4.00;77.80
39325;DHT22;25037;49.488;9.900;2022-11-06T06:54:14;4.00;77.80
39325;DHT22;25037;49.488;9.900;2022-11-06T06:56:40;4.00;77.70
39325;DHT22;25037;49.488;9.900;2022-11-06T06:59:06;4.10;77.60
39325;DHT22;25037;49.488;9.900;2022-11-06T07:01:32;4.10;77.70
39325;DHT22;25037;49.488;9.900;2022-11-06T07:03:57;4.20;77.60
39325;DHT22;25037;49.488;9.900;2022-11-06T07:06:23;4.20;77.50
39325;DHT22;25037;49.488;9.900;2022-11-06T07:08:49;4.20;77.60
39325;DHT22;25037;49.488;9.900;2022-11-06T07:11:15;4.30;77.50
39325;DHT22;25037;49.488;9.900;2022-11-06T07:13:42;4.40;77.40
39325;DHT22;25037;49.488;9.900;2022-11-06T07:16:09;4.50;77.30
39325;DHT22;25037;49.488;9.900;2022-11-06T07:18:36;4.50;77.20
39325;DHT22;25037;49.488;9.900;2022-11-06T07:21:06;4.50;77.10
39325;DHT22;25037;49.488;9.900;2022-11-06T07:23:36;4.50;77.30
39325;DHT22;25037;49.488;9.900;2022-11-06T07:26:04;4.60;77.30
39325;DHT22;25037;49.488;9.900;2022-11-06T07:28:30;4.70;77.20
39325;DHT22;25037;49.488;9.900;2022-11-06T07:31:03;4.90;77.10
39325;DHT22;25037;49.488;9.900;2022-11-06T07:33:30;5.00;76.80
39325;DHT22;25037;49.488;9.900;2022-11-06T07:36:04;5.10;76.60
39325;DHT22;25037;49.488;9.900;2022-11-06T07:38:32;5.20;76.40
39325;DHT22;25037;49.488;9.900;2022-11-06T07:41:07;5.20;76.30
39325;DHT22;25037;49.488;9.900;2022-11-06T07:43:33;5.30;76.10
39325;DHT22;25037;49.488;9.900;2022-11-06T07:46:00;5.30;76.20
39325;DHT22;25037;49.488;9.900;2022-11-06T07:48:27;5.40;76.10
39325;DHT22;25037;49.488;9.900;2022-11-06T07:50:52;5.50;76.10
39325;DHT22;25037;49.488;9.900;2022-11-06T07:53:18;5.60;76.10
39325;DHT22;25037;49.488;9.900;2022-11-06T07:55:50;5.70;75.90
39325;DHT22;25037;49.488;9.900;2022-11-06T07:58:17;5.80;75.80
39325;DHT22;25037;49.488;9.900;2022-11-06T08:03:10;6.00;75.60
39325;DHT22;25037;49.488;9.900;2022-11-06T08:05:36;6.10;75.40
39325;DHT22;25037;49.488;9.900;2022-11-06T08:08:01;6.20;75.30
39325;DHT22;25037;49.488;9.900;2022-11-06T08:10:27;6.20;75.40
39325;DHT22;25037;49.488;9.900;2022-11-06T08:12:52;6.40;75.30
39325;DHT22;25037;49.488;9.900;2022-11-06T08:15:18;6.40;75.30
39325;DHT22;25037;49.488;9.900;2022-11-06T08:17:43;6.50;75.20
39325;DHT22;25037;49.488;9.900;2022-11-06T08:20:09;6.60;75.10
39325;DHT22;25037;49.488;9.900;2022-11-06T08:22:34;6.70;75.10
39325;DHT22;25037;49.488;9.900;2022-11-06T08:25:00;6.80;75.00
39325;DHT22;25037;49.488;9.900;2022-11-06T08:27:27;6.90;75.00
39325;DHT22;25037;49.488;9.900;2022-11-06T08:29:53;7.00;74.90
39325;DHT22;25037;49.488;9.900;2022-11-06T08:32:18;7.00;74.80
39325;DHT22;25037;49.488;9.900;2022-11-06T08:34:44;7.10;74.70
39325;DHT22;25037;49.488;9.900;2022-11-06T08:37:09;7.20;74.50
39325;DHT22;25037;49.488;9.900;2022-11-06T08:39:35;7.20;74.30
39325;DHT22;25037;49.488;9.900;2022-11-06T08:42:03;7.10;74.50
39325;DHT22;25037;49.488;9.900;2022-11-06T08:44:29;7.10;74.50
39325;DHT22;25037;49.488;9.900;2022-11-06T08:46:54;7.20;74.70
39325;DHT22;25037;49.488;9.900;2022-11-06T08:49:20;7.30;74.80
39325;DHT22;25037;49.488;9.900;2022-11-06T08:51:45;7.40;74.80
39325;DHT22;25037;49.488;9.900;2022-11-06T08:54:11;7.50;74.90
39325;DHT22;25037;49.488;9.900;2022-11-06T08:56:37;7.60;74.80
39325;DHT22;25037;49.488;9.900;2022-11-06T08:59:02;7.60;74.60
39325;DHT22;25037;49.488;9.900;2022-11-06T09:01:28;7.60;74.60
39325;DHT22;25037;49.488;9.900;2022-11-06T09:03:53;7.80;74.70
39325;DHT22;25037;49.488;9.900;2022-11-06T09:06:19;7.80;74.70
39325;DHT22;25037;49.488;9.900;2022-11-06T09:08:44;7.90;74.80
39325;DHT22;25037;49.488;9.900;2022-11-06T09:11:10;8.00;74.90
39325;DHT22;25037;49.488;9.900;2022-11-06T09:13:36;8.20;74.90
39325;DHT22;25037;49.488;9.900;2022-11-06T09:16:02;8.30;74.90
39325;DHT22;25037;49.488;9.900;2022-11-06T09:18:27;8.40;74.80
39325;DHT22;25037;49.488;9.900;2022-11-06T09:20:54;8.50;74.90
39325;DHT22;25037;49.488;9.900;2022-11-06T09:23:22;8.70;74.90
39325;DHT22;25037;49.488;9.900;2022-11-06T09:25:47;8.80;74.80
39325;DHT22;25037;49.488;9.900;2022-11-06T09:28:13;9.00;74.80
39325;DHT22;25037;49.488;9.900;2022-11-06T09:30:38;9.10;74.70
39325;DHT22;25037;49.488;9.900;2022-11-06T09:33:04;9.30;74.70
39325;DHT22;25037;49.488;9.900;2022-11-06T09:35:32;9.40;74.60
39325;DHT22;25037;49.488;9.900;2022-11-06T09:38:03;9.70;74.60
39325;DHT22;25037;49.488;9.900;2022-11-06T09:40:42;9.80;74.50
39325;DHT22;25037;49.488;9.900;2022-11-06T09:43:16;9.90;74.40
39325;DHT22;25037;49.488;9.900;2022-11-06T09:45:45;10.10;74.20
39325;DHT22;25037;49.488;9.900;2022-11-06T09:48:22;10.30;74.20
39325;DHT22;25037;49.488;9.900;2022-11-06T09:50:57;10.50;74.10
39325;DHT22;25037;49.488;9.900;2022-11-06T09:53:35;10.70;74.00
39325;DHT22;25037;49.488;9.900;2022-11-06T09:56:02;10.80;73.70
39325;DHT22;25037;49.488;9.900;2022-11-06T09:58:35;11.10;73.40
39325;DHT22;25037;49.488;9.900;2022-11-06T10:01:13;11.20;73.30
39325;DHT22;25037;49.488;9.900;2022-11-06T10:06:13;11.40;72.80
39325;DHT22;25037;49.488;9.900;2022-11-06T10:08:41;11.50;72.80
39325;DHT22;25037;49.488;9.900;2022-11-06T10:13:46;11.80;72.60
39325;DHT22;25037;49.488;9.900;2022-11-06T10:16:25;11.80;72.50
39325;DHT22;25037;49.488;9.900;2022-11-06T10:19:23;12.00;72.20
39325;DHT22;25037;49.488;9.900;2022-11-06T10:22:34;12.00;71.90
39325;DHT22;25037;49.488;9.900;2022-11-06T10:25:21;12.20;71.50
39325;DHT22;25037;49.488;9.900;2022-11-06T10:28:03;12.30;71.10
39325;DHT22;25037;49.488;9.900;2022-11-06T10:36:09;12.70;71.00
39325;DHT22;25037;49.488;9.900;2022-11-06T10:38:41;12.80;70.40
39325;DHT22;25037;49.488;9.900;2022-11-06T10:41:21;12.90;70.30
39325;DHT22;25037;49.488;9.900;2022-11-06T10:43:55;12.90;70.40
39325;DHT22;25037;49.488;9.900;2022-11-06T10:46:48;13.00;70.10
39325;DHT22;25037;49.488;9.900;2022-11-06T10:52:03;13.10;69.70
39325;DHT22;25037;49.488;9.900;2022-11-06T10:57:37;13.10;68.80
39325;DHT22;25037;49.488;9.900;2022-11-06T11:00:07;13.20;68.80
39325;DHT22;25037;49.488;9.900;2022-11-06T11:02:36;13.20;68.60
39325;DHT22;25037;49.488;9.900;2022-11-06T11:05:13;13.20;68.20
39325;DHT22;25037;49.488;9.900;2022-11-06T11:07:40;13.20;67.90
39325;DHT22;25037;49.488;9.900;2022-11-06T11:12:51;13.30;68.00
39325;DHT22;25037;49.488;9.900;2022-11-06T11:15:21;13.20;67.80
39325;DHT22;25037;49.488;9.900;2022-11-06T11:20:45;13.30;66.70
39325;DHT22;25037;49.488;9.900;2022-11-06T11:23:22;13.30;66.40
39325;DHT22;25037;49.488;9.900;2022-11-06T11:25:54;13.20;66.10
39325;DHT22;25037;49.488;9.900;2022-11-06T11:28:32;13.30;66.20
39325;DHT22;25037;49.488;9.900;2022-11-06T11:33:24;13.30;66.70
39325;DHT22;25037;49.488;9.900;2022-11-06T11:35:52;13.30;66.90
39325;DHT22;25037;49.488;9.900;2022-11-06T11:38:18;13.30;66.50
39325;DHT22;25037;49.488;9.900;2022-11-06T11:40:46;13.30;66.20
39325;DHT22;25037;49.488;9.900;2022-11-06T11:43:26;13.30;66.20
39325;DHT22;25037;49.488;9.900;2022-11-06T11:48:40;13.30;65.90
39325;DHT22;25037;49.488;9.900;2022-11-06T11:53:51;13.20;65.60
39325;DHT22;25037;49.488;9.900;2022-11-06T11:56:19;13.10;65.90
39325;DHT22;25037;49.488;9.900;2022-11-06T11:58:51;13.00;65.90
39325;DHT22;25037;49.488;9.900;2022-11-06T12:01:18;13.00;65.70
39325;DHT22;25037;49.488;9.900;2022-11-06T12:03:47;12.90;65.80
39325;DHT22;25037;49.488;9.900;2022-11-06T12:06:16;13.00;65.60
39325;DHT22;25037;49.488;9.900;2022-11-06T12:09:01;12.90;65.20
39325;DHT22;25037;49.488;9.900;2022-11-06T12:11:29;12.80;65.30
39325;DHT22;25037;49.488;9.900;2022-11-06T12:14:17;12.70;65.50
39325;DHT22;25037;49.488;9.900;2022-11-06T12:16:57;12.70;65.40
39325;DHT22;25037;49.488;9.900;2022-11-06T12:19:26;12.60;65.20
39325;DHT22;25037;49.488;9.900;2022-11-06T12:21:56;12.60;65.70
39325;DHT22;25037;49.488;9.900;2022-11-06T12:24:40;12.60;65.70
39325;DHT22;25037;49.488;9.900;2022-11-06T12:27:14;12.50;65.10
39325;DHT22;25037;49.488;9.900;2022-11-06T12:29:42;12.50;65.40
39325;DHT22;25037;49.488;9.900;2022-11-06T12:32:25;12.40;65.40
39325;DHT22;25037;49.488;9.900;2022-11-06T12:35:19;12.40;65.30
39325;DHT22;25037;49.488;9.900;2022-11-06T12:37:51;12.40;65.40
39325;DHT22;25037;49.488;9.900;2022-11-06T12:40:28;12.40;65.70
39325;DHT22;25037;49.488;9.900;2022-11-06T12:45:37;12.50;65.60
39325;DHT22;25037;49.488;9.900;2022-11-06T12:48:18;12.40;65.30
39325;DHT22;25037;49.488;9.900;2022-11-06T12:56:42;12.30;65.60
39325;DHT22;25037;49.488;9.900;2022-11-06T13:07:51;12.30;65.50
39325;DHT22;25037;49.488;9.900;2022-11-06T13:13:21;12.30;65.80
39325;DHT22;25037;49.488;9.900;2022-11-06T13:18:55;12.40;65.40
39325;DHT22;25037;49.488;9.900;2022-11-06T13:21:31;12.50;65.40
39325;DHT22;25037;49.488;9.900;2022-11-06T13:24:13;12.50;65.20
39325;DHT22;25037;49.488;9.900;2022-11-06T13:26:48;12.50;65.60
39325;DHT22;25037;49.488;9.900;2022-11-06T13:29:17;12.50;65.50
39325;DHT22;25037;49.488;9.900;2022-11-06T13:31:49;12.50;65.50
39325;DHT22;25037;49.488;9.900;2022-11-06T13:34:39;12.50;65.20
39325;DHT22;25037;49.488;9.900;2022-11-06T13:37:19;12.50;64.90
39325;DHT22;25037;49.488;9.900;2022-11-06T13:39:49;12.50;64.90
39325;DHT22;25037;49.488;9.900;2022-11-06T13:42:30;12.40;65.20
39325;DHT22;25037;49.488;9.900;2022-11-06T13:44:58;12.40;65.20
39325;DHT22;25037;49.488;9.900;2022-11-06T13:50:21;12.30;65.30
39325;DHT22;25037;49.488;9.900;2022-11-06T13:53:02;12.30;65.50
39325;DHT22;25037;49.488;9.900;2022-11-06T14:04:19;12.30;65.80
39325;DHT22;25037;49.488;9.900;2022-11-06T14:06:52;12.30;65.80
39325;DHT22;25037;49.488;9.900;2022-11-06T14:09:20;12.20;65.80
39325;DHT22;25037;49.488;9.900;2022-11-06T14:11:52;12.20;65.70
39325;DHT22;25037;49.488;9.900;2022-11-06T14:16:44;12.10;66.10
39325;DHT22;25037;49.488;9.900;2022-11-06T14:21:46;12.10;66.10
39325;DHT22;25037;49.488;9.900;2022-11-06T14:24:31;12.00;66.20
39325;DHT22;25037;49.488;9.900;2022-11-06T14:27:07;12.00;66.10
39325;DHT22;25037;49.488;9.900;2022-11-06T14:34:37;11.80;66.10
39325;DHT22;25037;49.488;9.900;2022-11-06T14:42:30;11.70;66.40
39325;DHT22;25037;49.488;9.900;2022-11-06T14:50:36;11.30;66.00
39325;DHT22;25037;49.488;9.900;2022-11-06T14:53:14;11.20;66.20
39325;DHT22;25037;49.488;9.900;2022-11-06T14:55:44;11.10;66.20
39325;DHT22;25037;49.488;9.900;2022-11-06T15:00:53;10.90;66.70
39325;DHT22;25037;49.488;9.900;2022-11-06T15:04:05;10.90;66.90
39325;DHT22;25037;49.488;9.900;2022-11-06T15:16:45;10.70;67.40
39325;DHT22;25037;49.488;9.900;2022-11-06T15:19:20;10.60;67.80
39325;DHT22;25037;49.488;9.900;2022-11-06T15:24:19;10.70;67.60
39325;DHT22;25037;49.488;9.900;2022-11-06T15:26:52;10.60;67.50
39325;DHT22;25037;49.488;9.900;2022-11-06T15:29:33;10.50;67.60
39325;DHT22;25037;49.488;9.900;2022-11-06T15:32:08;10.50;67.70
39325;DHT22;25037;49.488;9.900;2022-11-06T15:34:54;10.40;67.80
39325;DHT22;25037;49.488;9.900;2022-11-06T15:37:29;10.40;67.90
39325;DHT22;25037;49.488;9.900;2022-11-06T15:39:56;10.30;68.10
39325;DHT22;25037;49.488;9.900;2022-11-06T15:42:25;10.30;68.30
39325;DHT22;25037;49.488;9.900;2022-11-06T15:45:08;10.20;68.50
39325;DHT22;25037;49.488;9.900;2022-11-06T15:47:34;10.20;68.60
39325;DHT22;25037;49.488;9.900;2022-11-06T15:50:17;10.10;68.70
39325;DHT22;25037;49.488;9.900;2022-11-06T15:52:44;10.10;68.80
39325;DHT22;25037;49.488;9.900;2022-11-06T15:55:14;10.00;68.80
39325;DHT22;25037;49.488;9.900;2022-11-06T15:57:40;10.00;69.00
39325;DHT22;25037;49.488;9.900;2022-11-06T16:00:19;10.00;69.00
39325;DHT22;25037;49.488;9.900;2022-11-06T16:05:18;9.90;69.10
39325;DHT22;25037;49.488;9.900;2022-11-06T16:07:45;10.00;69.20
39325;DHT22;25037;49.488;9.900;2022-11-06T16:10:20;10.00;69.30
39325;DHT22;25037;49.488;9.900;2022-11-06T16:12:50;10.00;69.40
39325;DHT22;25037;49.488;9.900;2022-11-06T16:15:55;9.90;69.50
39325;DHT22;25037;49.488;9.900;2022-11-06T16:18:27;9.90;69.50
39325;DHT22;25037;49.488;9.900;2022-11-06T16:20:58;9.90;69.60
39325;DHT22;25037;49.488;9.900;2022-11-06T16:23:36;9.90;69.70
39325;DHT22;25037;49.488;9.900;2022-11-06T16:26:08;9.80;69.90
39325;DHT22;25037;49.488;9.900;2022-11-06T16:28:34;9.80;70.00
39325;DHT22;25037;49.488;9.900;2022-11-06T16:34:39;9.80;70.10
39325;DHT22;25037;49.488;9.900;2022-11-06T16:37:09;9.80;69.90
39325;DHT22;25037;49.488;9.900;2022-11-06T16:39:54;9.80;69.80
39325;DHT22;25037;49.488;9.900;2022-11-06T16:42:35;9.80;69.80
39325;DHT22;25037;49.488;9.900;2022-11-06T16:50:54;9.60;70.10
39325;DHT22;25037;49.488;9.900;2022-11-06T16:53:23;9.50;70.20
39325;DHT22;25037;49.488;9.900;2022-11-06T16:56:04;9.50;70.30
39325;DHT22;25037;49.488;9.900;2022-11-06T16:58:33;9.40;70.50
39325;DHT22;25037;49.488;9.900;2022-11-06T17:01:06;9.40;70.60
39325;DHT22;25037;49.488;9.900;2022-11-06T17:03:45;9.30;70.70
39325;DHT22;25037;49.488;9.900;2022-11-06T17:09:23;9.30;71.00
39325;DHT22;25037;49.488;9.900;2022-11-06T17:11:55;9.30;71.00
39325;DHT22;25037;49.488;9.900;2022-11-06T17:14:22;9.30;71.10
39325;DHT22;25037;49.488;9.900;2022-11-06T17:16:52;9.30;71.20
39325;DHT22;25037;49.488;9.900;2022-11-06T17:19:19;9.30;71.20
39325;DHT22;25037;49.488;9.900;2022-11-06T17:21:46;9.40;71.30
39325;DHT22;25037;49.488;9.900;2022-11-06T17:24:11;9.40;71.40
39325;DHT22;25037;49.488;9.900;2022-11-06T17:26:51;9.40;71.50
39325;DHT22;25037;49.488;9.900;2022-11-06T17:29:17;9.40;71.70
39325;DHT22;25037;49.488;9.900;2022-11-06T17:31:43;9.40;71.70
39325;DHT22;25037;49.488;9.900;2022-11-06T17:34:08;9.40;71.80
39325;DHT22;25037;49.488;9.900;2022-11-06T17:36:36;9.40;72.00
39325;DHT22;25037;49.488;9.900;2022-11-06T17:39:02;9.40;72.10
39325;DHT22;25037;49.488;9.900;2022-11-06T17:41:28;9.40;72.10
39325;DHT22;25037;49.488;9.900;2022-11-06T17:43:58;9.50;72.10
39325;DHT22;25037;49.488;9.900;2022-11-06T17:46:25;9.50;72.10
39325;DHT22;25037;49.488;9.900;2022-11-06T17:48:52;9.50;72.10
39325;DHT22;25037;49.488;9.900;2022-11-06T17:51:17;9.50;72.20
39325;DHT22;25037;49.488;9.900;2022-11-06T17:54:01;9.50;72.30
39325;DHT22;25037;49.488;9.900;2022-11-06T17:56:27;9.50;72.40
39325;DHT22;25037;49.488;9.900;2022-11-06T17:58:52;9.50;72.50
39325;DHT22;25037;49.488;9.900;2022-11-06T18:01:18;9.60;72.60
39325;DHT22;25037;49.488;9.900;2022-11-06T18:03:44;9.60;72.70
39325;DHT22;25037;49.488;9.900;2022-11-06T18:06:14;9.70;72.80
39325;DHT22;25037;49.488;9.900;2022-11-06T18:08:39;9.70;72.80
39325;DHT22;25037;49.488;9.900;2022-11-06T18:11:06;9.70;72.80
39325;DHT22;25037;49.488;9.900;2022-11-06T18:13:33;9.80;72.90
39325;DHT22;25037;49.488;9.900;2022-11-06T18:15:59;9.80;72.80
39325;DHT22;25037;49.488;9.900;2022-11-06T18:18:25;9.80;72.80
39325;DHT22;25037;49.488;9.900;2022-11-06T18:20:51;9.90;72.90
39325;DHT22;25037;49.488;9.900;2022-11-06T18:23:17;10.00;72.90
39325;DHT22;25037;49.488;9.900;2022-11-06T18:25:42;10.10;72.80
39325;DHT22;25037;49.488;9.900;2022-11-06T18:28:09;10.10;72.70